Latest Weather Observations for Condobolin Airport

IDN60801

Issued at 8:03 am EDT Saturday 14 December 2019 (issued every 10 minutes, with the page automatically refreshed every 10 minutes)

About weather observations | Map of weather stations | Latest weather observations for NSW | Other Formats
Station Details ID: 050137 Name: CONDOBOLIN AIRPORT AWS Lat: -33.07 Lon: 147.21 Height: 192.6 m
Data from the previous 72 hours. | See also: Recent months at Condobolin Airport
Date/Time
EDT
Temp
°C
App
Temp
°C
Dew
Point
°C
Rel
Hum
%
Delta-T
°C
Wind Press
QNH
hPa
Press
MSL
hPa
Rain since
9am
mm
Dir  Spd
km/h
Gust
km/h
Spd
kts
Gust
kts
14/08:00am 20.8 17.4 6.0 38 7.5 SSW 13 20 7 11 1014.2 1013.2 0.0
14/07:30am 20.1 17.3 3.3 33 8.0 SSW 7 9 4 5 1013.9 1013.0 0.0
14/07:00am 19.2 16.3 1.2 30 8.2 WSW 6 7 3 4 1013.4 1012.5 0.0
14/06:30am 17.5 14.8 0.2 31 7.6 W 4 7 2 4 1013.2 1012.3 0.0
14/06:00am 16.4 13.2 -0.3 32 7.2 SW 6 6 3 3 1012.9 1012.0 0.0
14/05:30am 16.3 12.8 -1.3 30 7.4 WSW 7 9 4 5 1012.8 1011.9 0.0
14/05:00am 16.9 13.5 -0.8 30 7.6 WSW 7 9 4 5 1012.6 1011.7 0.0
14/04:30am 17.3 13.8 -1.4 28 7.9 WSW 7 9 4 5 1012.6 1011.7 0.0
14/04:00am 17.8 14.0 -0.9 28 8.0 W 9 11 5 6 1012.6 1011.7 0.0
14/03:30am 18.3 14.8 -1.0 27 8.3 W 7 7 4 4 1012.7 1011.8 0.0
14/03:00am 18.7 15.2 -1.2 26 8.6 WSW 7 9 4 5 1012.8 1011.9 0.0
14/02:30am 19.5 15.7 -1.0 25 8.9 SW 9 11 5 6 1013.0 1012.1 0.0
14/02:00am 19.8 15.5 -1.3 24 9.2 SSW 11 13 6 7 1013.2 1012.3 0.0
14/01:30am 21.0 16.5 -0.3 24 9.5 SSW 13 15 7 8 1013.5 1012.6 0.0
14/01:00am 21.0 16.8 -0.9 23 9.7 SW 11 13 6 7 1013.7 1012.8 0.0
14/12:30am 21.6 16.6 -1.0 22 10.0 SW 15 17 8 9 1013.7 1012.8 0.0
14/12:00am 21.8 17.1 -1.5 21 10.2 SW 13 19 7 10 1013.7 1012.8 0.0
 
Date/Time
EDT
Temp
°C
App
Temp
°C
Dew
Point
°C
Rel
Hum
%
Delta-T
°C
Wind Press
QNH
hPa
Press
MSL
hPa
Rain since
9am
mm
Dir  Spd
km/h
Gust
km/h
Spd
kts
Gust
kts
13/11:30pm 22.3 17.2 -1.7 20 10.6 SSW 15 19 8 10 1013.6 1012.7 0.0
13/11:00pm 22.8 18.0 -2.7 18 11.1 SW 13 17 7 9 1013.7 1012.8 0.0
13/10:30pm 23.4 18.2 -3.0 17 11.4 SW 15 19 8 10 1013.5 1012.6 0.0
13/10:00pm 23.9 18.2 -3.4 16 11.8 SW 17 20 9 11 1013.2 1012.3 0.0
13/09:30pm 24.4 18.3 -3.9 15 12.2 SW 19 24 10 13 1012.9 1012.0 0.0
13/09:00pm 24.7 18.8 -5.5 13 12.6 SW 17 20 9 11 1012.7 1011.8 0.0
13/08:30pm 25.5 19.0 -8.3 10 13.5 SW 19 26 10 14 1012.4 1011.5 0.0
13/08:00pm 26.5 19.0 -8.9 9 14.1 SW 24 32 13 17 1012.1 1011.2 0.0
13/07:30pm 27.4 19.5 -8.2 9 14.5 SW 26 33 14 18 1012.0 1011.1 0.0
13/07:00pm 28.1 19.9 -7.7 9 14.8 SW 28 35 15 19 1011.9 1011.0 0.0
13/06:30pm 28.4 20.2 -7.5 9 15.0 SW 28 41 15 22 1011.6 1010.7 0.0
13/06:00pm 28.4 19.5 -7.5 9 15.0 SSW 32 41 17 22 1011.6 1010.7 0.0
13/05:30pm 29.9 21.8 -6.4 9 15.6 SW 28 43 15 23 1011.6 1010.7 0.0
13/05:00pm 29.0 20.5 -7.0 9 15.2 SW 30 39 16 21 1011.8 1010.9 0.0
13/04:30pm 29.6 20.6 -6.6 9 15.5 SW 33 44 18 24 1012.0 1011.1 0.0
13/04:00pm 29.6 21.4 -8.1 8 15.7 SW 28 39 15 21 1012.2 1011.3 0.0
13/03:30pm 28.8 20.9 -8.7 8 15.4 SW 26 39 14 21 1012.3 1011.4 0.0
13/03:00pm 29.1 22.2 -10.2 7 15.7 SW 20 37 11 20 1012.7 1011.8 0.0
13/02:30pm 28.1 21.3 -9.2 8 15.0 SW 20 33 11 18 1013.1 1012.2 0.0
13/02:00pm 28.7 21.2 -8.8 8 15.3 SW 24 33 13 18 1013.4 1012.5 0.0
13/01:30pm 27.6 20.3 -6.7 10 14.4 SW 24 50 13 27 1013.9 1013.0 0.0
13/01:00pm 26.0 19.2 -5.6 12 13.3 SSW 22 37 12 20 1014.5 1013.5 0.0
13/12:30pm 24.5 17.4 -4.7 14 12.4 SW 24 35 13 19 1014.8 1013.8 0.0
13/12:00pm 24.6 18.5 -3.7 15 12.2 SW 19 35 10 19 1014.8 1013.8 0.0
13/11:30am 23.5 18.2 -0.7 20 11.0 WSW 17 28 9 15 1015.0 1014.1 0.0
13/11:00am 22.4 16.7 0.3 23 10.1 WSW 20 26 11 14 1015.3 1014.4 0.0
13/10:30am 20.4 15.2 0.3 26 9.1 SW 17 24 9 13 1015.6 1014.7 0.0
13/10:00am 19.8 15.0 0.3 27 8.7 SW 15 24 8 13 1015.6 1014.7 0.0
13/09:30am 19.1 14.8 0.7 29 8.3 SW 13 20 7 11 1015.8 1014.9 0.0
13/09:00am 18.3 14.1 1.8 33 7.5 SSW 13 19 7 10 1015.9 1015.0 0.0
13/08:30am 18.2 13.4 2.5 35 7.3 SSW 17 22 9 12 1015.9 1015.0 0.0
13/08:00am 17.5 12.7 2.7 37 6.8 SW 17 22 9 12 1015.7 1014.8 0.0
13/07:30am 17.3 13.9 2.1 36 6.9 WSW 9 17 5 9 1015.4 1014.5 0.0
13/07:00am 16.4 13.9 1.7 37 6.6 SW 4 7 2 4 1015.3 1014.4 0.0
13/06:30am 14.6 11.7 1.5 41 5.8 SSW 6 7 3 4 1015.1 1014.2 0.0
13/06:00am 15.2 12.4 2.1 41 5.9 SSW 6 7 3 4 1015.1 1014.2 0.0
13/05:30am 15.1 11.7 1.6 40 6.0 SSW 9 11 5 6 1015.0 1014.1 0.0
13/05:00am 16.3 13.3 2.3 39 6.3 S 7 11 4 6 1014.8 1013.8 0.0
13/04:30am 17.1 12.2 2.3 37 6.8 SSW 17 20 9 11 1014.7 1013.7 0.0
13/04:00am 17.8 13.4 2.5 36 7.0 SSW 15 20 8 11 1014.8 1013.8 0.0
13/03:30am 18.2 13.5 2.9 36 7.1 SSW 17 24 9 13 1014.8 1013.8 0.0
13/03:00am 18.3 14.6 2.6 35 7.3 SW 11 17 6 9 1014.5 1013.5 0.0
13/02:30am 19.5 14.7 2.8 33 7.8 SSW 17 20 9 11 1014.5 1013.5 0.0
13/02:00am 20.5 15.4 2.8 31 8.4 S 19 26 10 14 1014.6 1013.6 0.0
13/01:30am 20.9 16.4 2.2 29 8.8 S 15 19 8 10 1014.8 1013.8 0.0
13/01:00am 21.7 15.8 1.4 26 9.4 SSW 22 30 12 16 1015.0 1014.1 0.0
13/12:30am 21.1 16.2 -0.8 23 9.7 SW 15 17 8 9 1015.1 1014.2 0.0
13/12:00am 22.3 16.4 -1.1 21 10.4 SW 20 28 11 15 1015.2 1014.3 0.0
 
Date/Time
EDT
Temp
°C
App
Temp
°C
Dew
Point
°C
Rel
Hum
%
Delta-T
°C
Wind Press
QNH
hPa
Press
MSL
hPa
Rain since
9am
mm
Dir  Spd
km/h
Gust
km/h
Spd
kts
Gust
kts
12/11:30pm 22.3 17.2 -1.7 20 10.6 SW 15 19 8 10 1014.9 1013.9 0.0
12/11:00pm 22.7 17.6 -2.1 19 10.9 SW 15 19 8 10 1014.6 1013.6 0.0
12/10:30pm 23.7 18.2 -2.0 18 11.4 SW 17 20 9 11 1014.4 1013.4 0.0
12/10:00pm 24.6 19.1 -2.0 17 11.9 SW 17 20 9 11 1014.1 1013.1 0.0
12/09:30pm 25.6 19.5 -2.1 16 12.4 SW 20 26 11 14 1013.7 1012.8 0.0
12/09:00pm 26.3 20.2 -2.4 15 12.9 SW 20 30 11 16 1013.4 1012.5 0.0
12/08:30pm 27.0 20.5 -2.7 14 13.3 SW 22 28 12 15 1013.1 1012.2 0.0
12/08:00pm 28.2 20.5 -2.8 13 14.0 SW 28 35 15 19 1012.7 1011.8 0.0
12/07:30pm 29.0 21.5 -1.2 14 14.1 SW 28 35 15 19 1012.4 1011.5 0.0
12/07:00pm 29.7 21.9 -0.6 14 14.4 SW 30 39 16 21 1012.0 1011.1 0.0
12/06:30pm 30.1 21.9 -1.3 13 14.8 SSW 32 39 17 21 1011.7 1010.8 0.0
12/06:00pm 30.5 22.1 -1.0 13 15.0 SW 33 46 18 25 1011.3 1010.4 0.0
12/05:30pm 31.2 23.1 -0.5 13 15.3 SSW 32 44 17 24 1011.3 1010.4 0.0
12/05:08pm 31.4 23.3 -0.3 13 15.3 SW 32 50 17 27 1011.2 1010.3 0.0
12/05:00pm 30.7 22.5 -0.8 13 15.1 SW 32 46 17 25 1011.3 1010.4 0.0
12/04:31pm 30.5 23.2 0.0 14 14.7 SSW 28 48 15 26 1011.1 1010.2 0.0
12/04:30pm 30.7 23.0 0.2 14 14.8 SSW 30 48 16 26 1011.2 1010.3 0.0
12/04:10pm 31.5 23.4 -0.2 13 15.4 SW 32 50 17 27 1011.4 1010.5 0.0
12/04:00pm 30.9 23.1 -0.7 13 15.1 SW 30 43 16 23 1011.4 1010.5 0.0
12/03:30pm 31.4 24.1 -0.3 13 15.3 SW 28 43 15 23 1011.7 1010.8 0.0
12/03:00pm 29.7 21.6 -0.6 14 14.4 SW 32 44 17 24 1011.9 1011.0 0.0
12/02:30pm 29.9 22.7 0.5 15 14.3 SW 28 44 15 24 1012.0 1011.1 0.0
12/02:00pm 29.1 21.8 -0.1 15 14.0 SSW 28 46 15 25 1012.2 1011.3 0.0
12/01:59pm 29.5 22.2 0.2 15 14.1 SSW 28 46 15 25 1012.1 1011.2 0.0
12/01:30pm 29.9 24.2 0.5 15 14.3 SSW 20 33 11 18 1012.4 1011.5 0.0
12/01:00pm 29.3 22.4 0.0 15 14.0 SSW 26 39 14 21 1013.0 1012.1 0.0
12/12:30pm 28.2 21.4 0.9 17 13.2 SSW 26 44 14 24 1013.4 1012.5 0.0
12/12:00pm 27.4 20.8 1.8 19 12.5 SW 26 32 14 17 1013.6 1012.7 0.0
12/11:30am 27.1 20.4 1.5 19 12.4 SW 26 33 14 18 1013.9 1013.0 0.0
12/11:00am 26.0 19.9 5.0 26 10.8 SW 26 35 14 19 1013.8 1012.9 0.0
12/10:30am 25.4 20.4 4.5 26 10.6 SW 20 32 11 17 1013.8 1012.9 0.0
12/10:00am 24.1 19.5 5.5 30 9.5 SW 19 32 10 17 1013.9 1013.0 0.0
12/09:30am 22.9 18.7 5.8 33 8.7 SW 17 22 9 12 1013.8 1012.9 0.0
12/09:00am 22.2 18.9 4.3 31 8.8 SW 11 15 6 8 1013.8 1012.9 0.0
12/08:30am 21.5 17.9 3.2 30 8.8 SSW 11 17 6 9 1013.9 1013.0 0.0
12/08:00am 20.9 17.2 2.2 29 8.8 SW 11 15 6 8 1013.5 1012.6 0.0
12/07:30am 20.3 16.1 1.7 29 8.6 SW 13 19 7 10 1013.5 1012.6 0.0
12/07:00am 20.1 16.3 1.5 29 8.6 SW 11 15 6 8 1013.0 1012.1 0.0
12/06:30am 19.0 15.4 0.6 29 8.2 WSW 9 11 5 6 1012.9 1012.0 0.0
12/06:00am 17.6 13.8 -0.6 29 7.9 WSW 9 11 5 6 1012.8 1011.9 0.0
12/05:30am 18.3 14.5 -0.5 28 8.2 WSW 9 9 5 5 1012.7 1011.8 0.0
12/05:00am 19.4 14.9 -0.6 26 8.8 SSW 13 15 7 8 1012.4 1011.5 0.0
12/04:30am 20.0 16.1 -1.2 24 9.2 SSW 9 13 5 7 1012.2 1011.3 0.0
12/04:00am 21.5 17.4 -0.5 23 9.8 S 11 15 6 8 1012.1 1011.2 0.0
12/03:30am 21.0 17.2 -0.9 23 9.7 SSW 9 15 5 8 1012.1 1011.2 0.0
12/03:00am 21.1 17.8 -1.4 22 9.9 S 6 11 3 6 1012.0 1011.1 0.0
12/02:30am 22.1 16.7 -1.2 21 10.3 SSW 17 20 9 11 1011.9 1011.0 0.0
12/02:00am 23.0 17.6 -1.1 20 10.8 SSW 17 24 9 13 1012.0 1011.1 0.0
12/01:30am 23.0 18.7 -1.8 19 11.0 SW 11 15 6 8 1011.9 1011.0 0.0
12/01:00am 22.9 18.6 -1.9 19 10.9 SW 11 13 6 7 1012.1 1011.2 0.0
12/12:30am 24.2 19.5 -1.6 18 11.6 SW 13 17 7 9 1012.3 1011.4 0.0
12/12:00am 24.2 19.4 -2.4 17 11.7 SW 13 17 7 9 1012.4 1011.5 0.0
 
Date/Time
EDT
Temp
°C
App
Temp
°C
Dew
Point
°C
Rel
Hum
%
Delta-T
°C
Wind Press
QNH
hPa
Press
MSL
hPa
Rain since
9am
mm
Dir  Spd
km/h
Gust
km/h
Spd
kts
Gust
kts
11/11:30pm 24.6 20.1 -2.9 16 12.1 SW 11 13 6 7 1012.3 1011.4 0.0
11/11:00pm 25.3 20.8 -3.2 15 12.5 SW 11 15 6 8 1012.3 1011.4 0.0
11/10:30pm 26.7 21.1 -3.0 14 13.2 SW 17 20 9 11 1012.2 1011.3 0.0
11/10:00pm 27.6 21.6 -3.3 13 13.8 SW 19 22 10 12 1012.0 1011.1 0.0
11/09:30pm 28.5 22.1 -4.8 11 14.6 SW 20 28 11 15 1011.6 1010.7 0.0
11/09:00pm 29.1 23.0 -4.3 11 14.8 SW 19 24 10 13 1011.2 1010.3 0.0
11/08:30pm 30.0 23.2 -4.9 10 15.4 SW 22 28 12 15 1010.8 1009.9 0.0
11/08:00pm 31.4 23.5 -5.2 9 16.3 SW 28 35 15 19 1010.5 1009.6 0.0
11/07:30pm 32.8 24.8 -5.7 8 17.2 SW 28 35 15 19 1010.1 1009.1 0.0
11/07:00pm 33.7 25.4 -5.1 8 17.6 SW 30 39 16 21 1009.8 1008.8 0.0
11/06:30pm 34.4 27.1 -6.3 7 18.2 SW 24 33 13 18 1009.5 1008.5 0.0
11/06:00pm 35.1 26.7 -5.8 7 18.6 SW 30 50 16 27 1009.5 1008.5 0.0
11/05:53pm 35.3 26.9 -5.7 7 18.7 SW 30 50 16 27 1009.5 1008.5 0.0
11/05:30pm 35.4 29.3 -3.8 8 18.4 SW 19 32 10 17 1009.5 1008.5 0.0
11/05:00pm 35.8 29.4 -5.3 7 18.9 SW 20 54 11 29 1009.6 1008.6 0.0
11/04:30pm 35.5 29.0 -5.5 7 18.7 WSW 20 30 11 16 1010.1 1009.1 0.0
11/04:00pm 34.7 27.8 -6.1 7 18.4 SW 22 30 12 16 1010.3 1009.3 0.0
11/03:30pm 36.3 28.4 -5.0 7 19.1 SW 28 39 15 21 1010.5 1009.6 0.0
11/03:00pm 35.1 28.8 -4.1 8 18.3 WSW 20 37 11 20 1010.8 1009.9 0.0
11/02:30pm 34.2 28.0 -4.7 8 17.8 SW 19 32 10 17 1011.2 1010.3 0.0
11/02:00pm 34.1 27.5 -6.5 7 18.1 WSW 20 33 11 18 1011.5 1010.6 0.0
11/01:30pm 33.8 27.8 -6.8 7 17.9 SW 17 28 9 15 1011.6 1010.7 0.0
11/01:00pm 33.0 26.9 -7.3 7 17.6 SW 17 28 9 15 1012.1 1011.2 0.0
11/12:30pm 32.5 27.3 -6.0 8 17.1 SW 13 26 7 14 1012.5 1011.6 0.0
11/12:00pm 31.9 27.0 -3.5 10 16.3 W 13 20 7 11 1012.8 1011.9 0.0
11/11:30am 30.5 24.9 -3.3 11 15.4 WSW 17 26 9 14 1012.9 1012.0 0.0
11/11:00am 29.8 24.9 -0.5 14 14.5 SW 15 20 8 11 1013.1 1012.2 0.0
11/10:30am 29.2 24.5 0.8 16 13.8 SSW 15 22 8 12 1013.3 1012.4 0.0
11/10:00am 28.6 24.0 3.5 20 12.7 SW 17 22 9 12 1013.4 1012.5 0.0
11/09:30am 26.6 22.1 4.4 24 11.3 WSW 17 22 9 12 1013.6 1012.7 0.0
11/09:00am 26.1 22.8 4.6 25 10.9 SW 11 17 6 9 1013.5 1012.6 0.0
11/08:30am 24.6 22.2 4.4 27 10.1 SSW 6 11 3 6 1013.6 1012.7 0.0

Other formats

Comma delimited format used in spreadsheet applications
http://www.bom.gov.au/fwo/IDN60801/IDN60801.95708.axf

JavaScript Object Notation format (JSON) in row-major order
http://www.bom.gov.au/fwo/IDN60801/IDN60801.95708.json

Data quality

Most of these data are generated automatically and are frequently updated. Quality checks on data are not normally performed. It is possible for incorrect values to appear. Refer to information at About Latest Weather Observations and please check the disclaimer before using these data.